• Join FlightAware (Why Join?)
  • Login
  • US Flag 
10:29AM EDT


 

Airport Tracker/Info


-or-


 

Live Flight TrackerFlight Track Log ✈ DAL1981 ✈ 23-Jul-2013 ✈ KSMF - KMSP

Flight Track Log - Related Links

Times and Time Zones

All times are in EDT time to prevent confusion due to time zone crossing. See the DAL1981 flight status page for this flight to view local times or setup timezone preferences in your user account.

Time Position Orientation Groundspeed Altitude Reporting Facility
EDT Latitude Longitude Course Direction KTS MPH feet Rate Location/Type
03:53PM 38.6500 -121.5500 78° East 185 213 1,500  Level Northern Cal TRACON
03:55PM 38.4972 -121.2527 80° East  Level FlightAware Approximate
03:55PM 38.6528 -121.3600 89° East 282 325 5,900  Level Oakland Center
03:56PM 38.5345 -121.0944 76° East  Level FlightAware Approximate
03:56PM 38.6600 -121.2575 85° East 292 336 8,500  Level Oakland Center
03:57PM 38.5641 -120.9328 78° East  Level FlightAware Approximate
03:57PM 38.6661 -121.1497 86° East 304 350 10,500  Level Oakland Center
03:58PM 38.5911 -120.7704 78° East  Level FlightAware Approximate
03:58PM 38.6719 -121.0306 86° East 350 403 11,400  Level Oakland Center
03:59PM 38.6931 -120.9003 78° East 374 430 13,800 2,040 Climbing Oakland Center
04:00PM 38.7597 -120.7939 51° Northeast 377 434 15,600 1,680 Climbing Oakland Center
04:01PM 38.8292 -120.6867 50° Northeast 386 444 17,300 1,740 Climbing Oakland Center
04:02PM 38.9119 -120.5542 51° Northeast 395 455 19,200 1,560 Climbing Oakland Center
04:03PM 38.9836 -120.4394 51° Northeast 408 470 20,600 1,620 Climbing Oakland Center
04:04PM 39.0594 -120.3225 50° Northeast 426 490 22,600 1,260 Climbing Oakland Center
04:05PM 39.1322 -120.2053 51° Northeast 424 488 23,200 780 Climbing Oakland Center
04:06PM 39.2125 -120.0792 51° Northeast 448 516 24,200 1,800 Climbing Oakland Center
04:07PM 39.3083 -119.9828 38° Northeast 433 498 26,900 1,500 Climbing Oakland Center
04:08PM 39.3864 -119.8664 49° Northeast 431 496 27,300 300 Climbing Oakland Center
04:09PM 39.4625 -119.7367 53° Northeast 449 517 27,600 420 Climbing Oakland Center
04:10PM 39.5417 -119.5992 53° Northeast 472 543 28,200 720 Climbing Oakland Center
04:11PM 39.6228 -119.4619 52° Northeast 478 550 29,100 840 Climbing Oakland Center
04:12PM 39.7011 -119.3231 54° Northeast 474 545 30,000 900 Climbing Oakland Center
04:13PM 39.7975 -119.1556 53° Northeast 478 550 31,000 900 Climbing Oakland Center
04:14PM 39.8775 -119.0158 53° Northeast 478 550 31,900 1,260 Climbing Oakland Center
04:15PM 39.9550 -118.8792 53° Northeast 470 541 33,600 1,140 Climbing Oakland Center
04:17PM 40.0303 -118.7475 53° Northeast 455 524 34,300 540 Climbing Oakland Center
04:18PM 40.1042 -118.6128 54° Northeast 455 524 34,800 300 Climbing Oakland Center
04:19PM 40.1581 -118.4608 65° Northeast 458 527 35,000 60 Climbing Oakland Center
04:19PM 40.1953 -118.3228 71° East 456 525 35,000  Level Salt Lake Center
04:21PM 40.2442 -118.1475 70° East 460 529 35,000  Level Salt Lake Center
04:22PM 40.2917 -117.9711 71° East 460 529 35,000  Level Oakland Center
04:23PM 40.3325 -117.8183 71° East 463 533 35,000  Level Oakland Center
04:24PM 40.3742 -117.6658 70° East 463 533 35,000  Level Oakland Center
04:25PM 40.4147 -117.5128 71° East 462 532 35,000  Level Salt Lake Center
04:26PM 40.4617 -117.3325 71° East 465 535 35,000  Level Salt Lake Center
04:27PM 40.5039 -117.1775 70° East 467 537 35,000  Level Salt Lake Center
04:28PM 40.5536 -116.9936 70° East 472 543 35,000  Level Salt Lake Center
04:29PM 40.6025 -116.8378 68° East 473 544 35,000  Level Salt Lake Center
04:30PM 40.6611 -116.6894 62° Northeast 472 543 35,000  Level Salt Lake Center
04:31PM 40.7278 -116.5161 63° Northeast 474 545 35,000  Level Salt Lake Center
04:32PM 40.7853 -116.3675 63° Northeast 473 544 35,000  Level Salt Lake Center
04:33PM 40.8525 -116.1933 63° Northeast 475 547 35,000  Level Salt Lake Center
04:34PM 40.9111 -116.0439 63° Northeast 478 550 35,000  Level Salt Lake Center
04:35PM 40.9778 -115.8683 63° Northeast 478 550 35,000  Level Salt Lake Center
04:36PM 41.0336 -115.7172 64° Northeast 478 550 35,000  Level Salt Lake Center
04:37PM 41.0911 -115.5658 63° Northeast 479 551 35,000  Level Salt Lake Center
04:38PM 41.1578 -115.3881 63° Northeast 482 555 35,000  Level Salt Lake Center
04:39PM 41.2142 -115.2347 64° Northeast 482 555 35,000  Level Salt Lake Center
04:40PM 41.2800 -115.0564 64° Northeast 482 555 35,000  Level Salt Lake Center
04:41PM 41.3361 -114.9022 64° Northeast 482 555 35,000  Level Salt Lake Center
04:42PM 41.4008 -114.7289 63° Northeast 486 559 35,000  Level Salt Lake Center
04:43PM 41.4583 -114.5681 64° Northeast 484 557 35,000  Level Salt Lake Center
04:44PM 41.5181 -114.4053 64° Northeast 487 560 35,000  Level Salt Lake Center
04:45PM 41.5767 -114.2436 64° Northeast 486 559 35,000  Level Salt Lake Center
04:46PM 41.6350 -114.0803 64° Northeast 487 560 35,000  Level Salt Lake Center
04:47PM 41.7044 -113.8850 64° Northeast 486 559 35,000  Level Salt Lake Center
04:48PM 41.7625 -113.7203 65° Northeast 489 563 35,000  Level Salt Lake Center
04:49PM 41.8203 -113.5550 65° Northeast 489 563 35,000  Level Salt Lake Center
04:50PM 41.8781 -113.3906 65° Northeast 489 563 35,000  Level Salt Lake Center
04:51PM 41.9358 -113.2247 65° Northeast 489 563 35,000  Level Salt Lake Center
04:52PM 41.9931 -113.0583 65° Northeast 490 564 35,000  Level Salt Lake Center
04:54PM 42.0494 -112.8914 65° Northeast 490 564 35,000 60 Level Salt Lake Center
04:55PM 42.1183 -112.6906 65° Northeast 492 566 35,200 360 Climbing Salt Lake Center
04:56PM 42.1756 -112.5231 65° Northeast 492 566 35,800 600 Climbing Salt Lake Center
04:57PM 42.2319 -112.3528 66° East 495 570 36,500 540 Climbing Salt Lake Center
04:58PM 42.2858 -112.1867 66° East 486 559 37,000 240 Climbing Salt Lake Center
04:59PM 42.3411 -112.0181 66° East 490 564 37,000  Level Salt Lake Center
05:00PM 42.3956 -111.8481 67° East 492 566 37,000  Level Salt Lake Center
05:01PM 42.4503 -111.6769 67° East 494 568 37,000  Level Salt Lake Center
05:02PM 42.5153 -111.4736 66° East 491 565 37,000  Level Salt Lake Center
05:03PM 42.5689 -111.3039 67° East 490 564 37,000  Level Salt Lake Center
05:04PM 42.6236 -111.1325 66° East 495 570 37,000  Level Salt Lake Center
05:05PM 42.6833 -110.9425 67° East 496 571 37,000  Level Salt Lake Center
05:06PM 42.7353 -110.7733 67° East 505 581 37,000  Level Salt Lake Center
05:07PM 42.7878 -110.6047 67° East 507 583 37,000  Level Salt Lake Center
05:08PM 42.8478 -110.4081 67° East 506 582 37,000  Level Salt Lake Center
05:09PM 42.8989 -110.2378 68° East 508 585 37,000  Level Salt Lake Center
05:10PM 42.9594 -110.0367 68° East 513 590 37,000  Level Salt Lake Center
05:11PM 43.0181 -109.8417 68° East 518 596 37,000  Level Salt Lake Center
05:12PM 43.0711 -109.6650 68° East 521 600 37,000  Level Salt Lake Center
05:13PM 43.1222 -109.4914 68° East 517 595 37,000  Level Salt Lake Center
05:14PM 43.1817 -109.2875 68° East 516 594 37,000  Level Salt Lake Center
05:15PM 43.2322 -109.1125 68° East 516 594 37,000  Level Salt Lake Center
05:16PM 43.2917 -108.9100 68° East 511 588 37,000  Level Salt Lake Center
05:17PM 43.3414 -108.7356 69° East 512 589 37,000  Level Salt Lake Center
05:18PM 43.3989 -108.5325 69° East 511 588 37,000  Level Salt Lake Center
05:19PM 43.4481 -108.3583 69° East 511 588 37,000  Level Salt Lake Center
05:20PM 43.5081 -108.1542 68° East 513 590 37,000  Level Salt Lake Center
05:21PM 43.5603 -107.9808 67° East 513 590 37,000  Level Salt Lake Center
05:22PM 43.6192 -107.7764 68° East 514 592 37,000  Level Salt Lake Center
05:23PM 43.6711 -107.6006 68° East 515 593 37,000  Level Salt Lake Center
05:24PM 43.7303 -107.3958 68° East 514 592 37,000  Level Salt Lake Center
05:26PM 43.7842 -107.2067 68° East 516 594 37,000  Level Salt Lake Center
05:27PM 43.8353 -107.0294 68° East 517 595 37,000  Level Salt Lake Center
05:28PM 43.8847 -106.8522 69° East 515 593 37,000  Level Salt Lake Center
05:29PM 43.9600 -106.5831 69° East 518 596 37,000  Level Denver Center
05:30PM 44.0008 -106.4328 69° East 519 597 37,000  Level Denver Center
05:31PM 44.0486 -106.2519 70° East 521 600 37,000  Level Salt Lake Center
05:32PM 44.0944 -106.0689 71° East 522 601 37,000  Level Salt Lake Center
05:33PM 44.1461 -105.8600 71° East 516 594 37,000  Level Salt Lake Center
05:34PM 44.1906 -105.6775 71° East 517 595 37,000  Level Salt Lake Center
05:35PM 44.2436 -105.4642 71° East 519 597 37,000  Level Salt Lake Center
05:36PM 44.2875 -105.2828 71° East 517 595 37,000  Level Salt Lake Center
05:37PM 44.3378 -105.0706 72° East 516 594 37,000  Level Salt Lake Center
05:38PM 44.3808 -104.8878 72° East 516 594 37,000  Level Salt Lake Center
05:39PM 44.4378 -104.6414 72° East 516 594 37,000  Level Denver Center
05:40PM 44.4875 -104.4336 71° East 510 587 37,000  Level Denver Center
05:41PM 44.5294 -104.2514 72° East 513 590 37,000  Level Denver Center
05:43PM 44.5822 -104.0033 73° East 519 597 37,000  Level Denver Center
05:44PM 44.5894 -103.8081 87° East 527 606 37,000  Level Denver Center
05:45PM 44.5947 -103.5803 88° East 524 603 37,000  Level Denver Center
05:46PM 44.5989 -103.4056 88° East 523 602 37,000  Level Denver Center
05:47PM 44.6033 -103.1622 88° East 522 601 37,000  Level Denver Center
05:48PM 44.6075 -102.9592 88° East 522 601 37,000  Level Denver Center
05:49PM 44.6100 -102.7550 89° East 523 602 37,000  Level Denver Center
05:50PM 44.6128 -102.5511 89° East 524 603 37,000  Level Denver Center
05:51PM 44.6150 -102.3883 89° East 524 603 37,000  Level Denver Center
05:52PM 44.6186 -102.1439 89° East 523 602 37,000  Level Denver Center
05:53PM 44.6200 -101.8981 89° East 525 604 37,000  Level Denver Center
05:54PM 44.6194 -101.6933 90° East 526 605 37,000  Level Denver Center
05:55PM 44.6203 -101.4989 90° East 509 586 37,000  Level Denver Center
05:56PM 44.6217 -101.3033 89° East 503 579 37,000  Level Denver Center
05:57PM 44.6208 -101.1069 90° East 504 580 37,000  Level Denver Center
05:58PM 44.6200 -100.9128 90° East 502 578 37,000  Level Denver Center
05:59PM 44.6194 -100.6028 90° East 502 578 37,000  Level Minneapolis Center
06:00PM 44.6186 -100.4089 90° East 501 577 37,000  Level Minneapolis Center
06:02PM 44.6172 -100.2142 91° East 504 580 37,000  Level Minneapolis Center
06:03PM 44.6158 -100.0236 91° East 497 572 37,000  Level Minneapolis Center
06:04PM 44.6136 -99.8319 91° East 497 572 37,000  Level Minneapolis Center
06:05PM 44.6111 -99.6017 91° East 497 572 37,000  Level Minneapolis Center
06:06PM 44.6089 -99.3725 91° East 494 568 37,000  Level Minneapolis Center
06:07PM 44.6058 -99.1811 91° East 494 568 37,000  Level Minneapolis Center
06:08PM 44.6028 -98.9903 91° East 493 567 37,000  Level Minneapolis Center
06:09PM 44.6000 -98.8372 91° East 493 567 37,000  Level Minneapolis Center
06:10PM 44.5936 -98.5697 92° East 492 566 37,000  Level Minneapolis Center
06:11PM 44.5897 -98.3781 92° East 492 566 37,000  Level Minneapolis Center
06:12PM 44.5875 -98.2003 91° East 494 568 37,000  Level Minneapolis Center
06:13PM 44.5806 -98.0089 93° East 493 567 37,000  Level Minneapolis Center
06:14PM 44.5744 -97.7781 92° East 494 568 37,000  Level Minneapolis Center
06:15PM 44.5689 -97.5794 92° East 507 583 37,000  Level Minneapolis Center
06:16PM 44.5619 -97.3783 93° East 516 594 37,000 -420 Level Minneapolis Center
06:17PM 44.5542 -97.1772 93° East 517 595 36,100 -900 Descending Minneapolis Center
06:18PM 44.5464 -96.9392 93° East 510 587 35,000 -960 Descending Minneapolis Center
06:20PM 44.5392 -96.7406 93° East 508 585 34,000 -900 Descending Minneapolis Center
06:21PM 44.5283 -96.4669 93° East 501 577 33,000 -600 Descending Minneapolis Center
06:22PM 44.5222 -96.2742 92° East 492 566 32,800 -540 Descending Minneapolis Center
06:23PM 44.5136 -96.0806 94° East 492 566 31,900 -960 Descending Minneapolis Center
06:24PM 44.5050 -95.8911 94° East 486 559 30,900 -960 Descending Minneapolis Center
06:25PM 44.4969 -95.7058 93° East 477 549 30,000 -840 Descending Minneapolis Center
06:26PM 44.4897 -95.5625 94° East 467 537 29,200 -1,020 Descending Minneapolis Center
06:27PM 44.4789 -95.3486 94° East 460 529 27,900 -1,920 Descending Minneapolis Center
06:28PM 44.4703 -95.1414 93° East 449 517 25,300 -2,280 Descending Minneapolis Center
06:29PM 44.5019 -94.9878 74° East 418 481 23,200 -1,800 Descending Minneapolis Center
06:30PM 44.5375 -94.8350 72° East 411 473 21,700 -1,800 Descending Minneapolis Center
06:31PM 44.5750 -94.6769 72° East 425 489 19,500 -2,340 Descending Minneapolis Center
06:32PM 44.6128 -94.5119 72° East 411 473 16,900 -2,400 Descending Minneapolis Center
06:33PM 44.6464 -94.3658 72° East 397 457 14,600 -2,280 Descending Minneapolis Center
06:34PM 44.6783 -94.2247 72° East 381 438 12,200 -1,800 Descending Minneapolis Center
06:35PM 44.7094 -94.0847 73° East 373 429 11,000 -540 Descending Minneapolis Center
06:37PM 44.7667 -93.8333 72° East 349 402 10,800 -420 Descending Minneapolis TRACON
06:38PM 44.7864 -93.7419 73° East 321 369 10,100 -1,020 Descending Minneapolis Center
06:39PM 44.8108 -93.6297 73° East 299 344 9,000 -540 Descending Minneapolis Center
06:40PM 44.8356 -93.5172 73° East 299 344 9,000 -60 Level Minneapolis Center
06:41PM 44.8589 -93.4089 73° East 288 331 8,900 -480 Descending Minneapolis Center
06:42PM 44.8467 -93.3356 103° East 263 303 8,100 -960 Descending Minneapolis Center
06:43PM 44.7528 -93.3264 176° South 251 289 7,000 -1,140 Descending Minneapolis Center
06:44PM 44.6858 -93.3150 173° South 252 290 5,800 -1,140 Descending Minneapolis Center
06:45PM 44.6839 -93.2483 92° East 209 241 4,700 -1,080 Descending Minneapolis Center